This is the latest recevied weather packets stored in our database for station/object WW1TA. If no packets are shown the sender has not sent any weather packets the latest 10 day(s).
| Time | Temp. | Humidity | Pressure | Rain* | Wind** | Luminosity | Snow |
|---|---|---|---|---|---|---|---|
| 1777748979 | 15° C | 99% | 1012 hPa | 0.51 mm | - | 113 W/m² | - |
| 1777748676 | 15.56° C | 99% | 1012 hPa | 0 mm | - | 45 W/m² | - |
| 1777748372 | 15.56° C | 99% | 1011.7 hPa | 0.51 mm | - | 98 W/m² | - |
| 1777746549 | 15.56° C | 99% | 1011.7 hPa | 1.27 mm | - | 197 W/m² | - |
| 1777746245 | 15° C | 99% | 1012 hPa | 0.51 mm | - | 168 W/m² | - |
| 1777745941 | 15° C | 99% | 1011.9 hPa | 0 mm | - | 115 W/m² | - |
| 1777745640 | 15.56° C | 99% | 1011.8 hPa | 0 mm | - | 142 W/m² | - |
| 1777745337 | 15° C | 99% | 1011.8 hPa | 0 mm | - | 157 W/m² | - |
| 1777745034 | 15° C | 99% | 1012.1 hPa | 0 mm | - | 135 W/m² | - |
| 1777744730 | 15° C | 99% | 1011.9 hPa | 0 mm | - | 149 W/m² | - |
| 1777744122 | 15° C | 99% | 1011.8 hPa | 1.27 mm | - | 220 W/m² | - |
| 1777743515 | 14.44° C | 99% | 1012.3 hPa | 1.78 mm | - | 185 W/m² | - |
| 1777742303 | 14.44° C | 99% | 1012.8 hPa | 6.6 mm | - | 148 W/m² | - |
| 1777742000 | 14.44° C | 99% | 1013.1 hPa | 3.56 mm | - | 61 W/m² | - |
| 1777741697 | 14.44° C | 99% | 1012.5 hPa | 1.27 mm | - | 102 W/m² | - |
| 1777739876 | 15° C | 99% | 1011.8 hPa | 0 mm | - | 171 W/m² | - |
| 1777739270 | 15° C | 99% | 1012 hPa | 1.78 mm | - | 229 W/m² | - |
| 1777738664 | 15° C | 99% | 1012.1 hPa | 3.05 mm | - | 198 W/m² | - |
| 1777738058 | 15° C | 99% | 1012.7 hPa | 4.32 mm | - | 103 W/m² | - |
| 1777737757 | 15° C | 99% | 1013.1 hPa | 2.29 mm | - | 95 W/m² | - |
| 1777736848 | 14.44° C | 99% | 1013.1 hPa | 1.27 mm | - | 94 W/m² | - |
| 1777736235 | 14.44° C | 99% | 1013.6 hPa | 1.78 mm | - | 86 W/m² | - |
| 1777735932 | 14.44° C | 99% | 1013.4 hPa | 1.27 mm | - | 99 W/m² | - |
| 1777735629 | 14.44° C | 99% | 1013.1 hPa | 1.78 mm | - | 77 W/m² | - |
| 1777735326 | 14.44° C | 99% | 1013.4 hPa | 2.29 mm | - | 91 W/m² | - |
* Rain latest hour (hover to see other rain measurements)
** Current wind speed in m/s (hover to see current wind gust speed)